Vancouver International Airport
CYVR : now visible

Airfield :











YOU CAN JOIN US ON...

 
LOGIN :

Register | Disclaimer

   EN    FR    IT 

 









Legend :    VFR   Marginal VFR   IFR   Intensive IFR   Very Intensive IFR
Visi :
Ceiling :
>= 8 km
>= 3000ft
5 to 8 km
1000 to 3000 ft
1500m to 5 km
500 to 1000 ft
800 to 1500m
200 to 500 ft
< 800m
< 200 ft
Symbols :   Thunderstorms  Fog  Heavy snow  Heavy precipitations  Wind > 20 kt






- Airport Elevation : 14 ft
- IATA code : YVR


CYVR - Vancouver International

CURRENT METAR :
  • 200700Z 14003KT 130V260 15SM FEW090 10/07 A3024 RMK AC1 AC TR SLP243

EXPIRED METARs :
  • 200600Z VRB02KT 15SM FEW090 11/08 A3024 RMK AC1 AC TR SLP242
  • 200500Z 15004KT 140V210 15SM FEW045 FEW100 10/07 A3023 RMK SC1AC1 SC TR AC TR SLP240

TAF TAF CYVR
Valid from the 20 at 06:00 until the 21 at 12:00 UTC


200540Z 2006/2112 VRB03KT P6SM FEW040
FM201100 09008KT P6SM BKN020
FM201600 VRB03KT P6SM BKN030
FM202100 26008KT P6SM FEW040
FM210600 08005KT P6SM SCT030 BKN080 RMK NXT FCST BY 200900Z
CZVR FIR / North America



MET'MAP, your aeronautical weather chart ! - Copyright ORBIFLY December 2007 - Disclaimer

ORBIFLY MET'MAP TEAM :

Programming & Development : Alexandra Zaïnal
Original concept : Baudouin d'Aumeries
Technical & hardware support : Manuel Goepfert
Assistance : Marc-Olivier Méhu

Contact : metmap@orbifly.com




SOURCES & CREDITS :

   NOAA       Earth
Advisory